sensor_id;sensor_type;location;lat;lon;timestamp;P1;durP1;ratioP1;P2;durP2;ratioP2
6356;SDS011;3211;53.452;-2.264;2023-05-31T00:00:25;9.63;;;3.97;;
6356;SDS011;3211;53.452;-2.264;2023-05-31T00:03:09;9.07;;;3.93;;
6356;SDS011;3211;53.452;-2.264;2023-05-31T00:05:51;5.57;;;3.73;;
6356;SDS011;3211;53.452;-2.264;2023-05-31T00:08:33;6.53;;;3.63;;
6356;SDS011;3211;53.452;-2.264;2023-05-31T00:11:14;5.80;;;3.90;;
6356;SDS011;3211;53.452;-2.264;2023-05-31T00:13:56;5.83;;;4.10;;
6356;SDS011;3211;53.452;-2.264;2023-05-31T00:16:38;7.90;;;3.47;;
6356;SDS011;3211;53.452;-2.264;2023-05-31T00:19:22;5.33;;;3.60;;
6356;SDS011;3211;53.452;-2.264;2023-05-31T00:22:04;9.17;;;3.80;;
6356;SDS011;3211;53.452;-2.264;2023-05-31T00:24:46;7.60;;;3.47;;
6356;SDS011;3211;53.452;-2.264;2023-05-31T00:27:28;4.53;;;3.70;;
6356;SDS011;3211;53.452;-2.264;2023-05-31T00:30:11;6.77;;;4.93;;
6356;SDS011;3211;53.452;-2.264;2023-05-31T00:32:53;5.83;;;3.70;;
6356;SDS011;3211;53.452;-2.264;2023-05-31T00:35:37;8.30;;;4.00;;
6356;SDS011;3211;53.452;-2.264;2023-05-31T00:38:19;5.93;;;4.20;;
6356;SDS011;3211;53.452;-2.264;2023-05-31T00:41:01;9.97;;;4.73;;
6356;SDS011;3211;53.452;-2.264;2023-05-31T00:43:43;8.90;;;4.20;;
6356;SDS011;3211;53.452;-2.264;2023-05-31T00:46:25;10.20;;;4.23;;
6356;SDS011;3211;53.452;-2.264;2023-05-31T00:49:09;12.60;;;4.60;;
6356;SDS011;3211;53.452;-2.264;2023-05-31T00:51:53;5.50;;;3.63;;
6356;SDS011;3211;53.452;-2.264;2023-05-31T00:54:35;6.80;;;3.50;;
6356;SDS011;3211;53.452;-2.264;2023-05-31T00:57:17;6.03;;;3.97;;
6356;SDS011;3211;53.452;-2.264;2023-05-31T01:00:06;11.23;;;4.10;;
6356;SDS011;3211;53.452;-2.264;2023-05-31T01:02:50;5.00;;;3.70;;
6356;SDS011;3211;53.452;-2.264;2023-05-31T01:05:32;6.00;;;3.53;;
6356;SDS011;3211;53.452;-2.264;2023-05-31T01:08:16;10.37;;;4.50;;
6356;SDS011;3211;53.452;-2.264;2023-05-31T01:10:59;10.60;;;4.10;;
6356;SDS011;3211;53.452;-2.264;2023-05-31T01:13:51;9.10;;;3.60;;
6356;SDS011;3211;53.452;-2.264;2023-05-31T01:16:41;6.90;;;4.33;;
6356;SDS011;3211;53.452;-2.264;2023-05-31T01:19:29;4.87;;;3.63;;
6356;SDS011;3211;53.452;-2.264;2023-05-31T01:22:25;7.00;;;3.83;;
6356;SDS011;3211;53.452;-2.264;2023-05-31T01:25:21;6.17;;;3.60;;
6356;SDS011;3211;53.452;-2.264;2023-05-31T01:28:09;6.17;;;3.87;;
6356;SDS011;3211;53.452;-2.264;2023-05-31T01:30:52;6.23;;;3.90;;
6356;SDS011;3211;53.452;-2.264;2023-05-31T01:33:36;7.20;;;4.20;;
6356;SDS011;3211;53.452;-2.264;2023-05-31T01:36:19;10.40;;;4.47;;
6356;SDS011;3211;53.452;-2.264;2023-05-31T01:39:01;9.10;;;3.90;;
6356;SDS011;3211;53.452;-2.264;2023-05-31T01:41:45;5.40;;;3.60;;
6356;SDS011;3211;53.452;-2.264;2023-05-31T01:44:29;8.63;;;4.40;;
6356;SDS011;3211;53.452;-2.264;2023-05-31T01:47:12;6.07;;;4.10;;
6356;SDS011;3211;53.452;-2.264;2023-05-31T01:49:55;7.23;;;4.40;;
6356;SDS011;3211;53.452;-2.264;2023-05-31T01:52:38;10.03;;;4.77;;
6356;SDS011;3211;53.452;-2.264;2023-05-31T01:55:21;7.47;;;4.77;;
6356;SDS011;3211;53.452;-2.264;2023-05-31T01:58:03;8.03;;;4.20;;
6356;SDS011;3211;53.452;-2.264;2023-05-31T02:00:47;7.53;;;4.30;;
6356;SDS011;3211;53.452;-2.264;2023-05-31T02:03:30;6.80;;;3.90;;
6356;SDS011;3211;53.452;-2.264;2023-05-31T02:06:12;9.80;;;4.40;;
6356;SDS011;3211;53.452;-2.264;2023-05-31T02:08:54;9.17;;;4.57;;
6356;SDS011;3211;53.452;-2.264;2023-05-31T02:11:36;5.00;;;4.00;;
6356;SDS011;3211;53.452;-2.264;2023-05-31T02:14:18;11.17;;;4.70;;
6356;SDS011;3211;53.452;-2.264;2023-05-31T02:17:05;8.10;;;4.20;;
6356;SDS011;3211;53.452;-2.264;2023-05-31T02:19:47;6.90;;;4.60;;
6356;SDS011;3211;53.452;-2.264;2023-05-31T02:22:29;8.03;;;4.23;;
6356;SDS011;3211;53.452;-2.264;2023-05-31T02:25:11;6.87;;;4.30;;
6356;SDS011;3211;53.452;-2.264;2023-05-31T02:27:54;4.77;;;3.80;;
6356;SDS011;3211;53.452;-2.264;2023-05-31T02:30:37;7.30;;;4.20;;
6356;SDS011;3211;53.452;-2.264;2023-05-31T02:33:21;6.93;;;4.40;;
6356;SDS011;3211;53.452;-2.264;2023-05-31T02:36:04;10.40;;;4.73;;
6356;SDS011;3211;53.452;-2.264;2023-05-31T02:38:46;8.87;;;4.60;;
6356;SDS011;3211;53.452;-2.264;2023-05-31T02:41:28;5.53;;;3.60;;
6356;SDS011;3211;53.452;-2.264;2023-05-31T02:44:10;12.67;;;4.20;;
6356;SDS011;3211;53.452;-2.264;2023-05-31T02:46:53;5.40;;;3.63;;
6356;SDS011;3211;53.452;-2.264;2023-05-31T02:49:36;6.40;;;3.53;;
6356;SDS011;3211;53.452;-2.264;2023-05-31T02:52:18;6.13;;;4.00;;
6356;SDS011;3211;53.452;-2.264;2023-05-31T02:55:01;5.10;;;3.30;;
6356;SDS011;3211;53.452;-2.264;2023-05-31T02:57:43;5.50;;;4.27;;
6356;SDS011;3211;53.452;-2.264;2023-05-31T03:00:25;5.70;;;3.80;;
6356;SDS011;3211;53.452;-2.264;2023-05-31T03:03:07;4.93;;;3.60;;
6356;SDS011;3211;53.452;-2.264;2023-05-31T03:05:51;5.60;;;3.00;;
6356;SDS011;3211;53.452;-2.264;2023-05-31T03:08:34;10.23;;;2.90;;
6356;SDS011;3211;53.452;-2.264;2023-05-31T03:11:16;3.47;;;2.70;;
6356;SDS011;3211;53.452;-2.264;2023-05-31T03:13:58;4.30;;;2.20;;
6356;SDS011;3211;53.452;-2.264;2023-05-31T03:16:40;3.90;;;2.30;;
6356;SDS011;3211;53.452;-2.264;2023-05-31T03:19:22;3.63;;;2.23;;
6356;SDS011;3211;53.452;-2.264;2023-05-31T03:22:05;2.70;;;2.50;;
6356;SDS011;3211;53.452;-2.264;2023-05-31T03:24:47;4.50;;;2.67;;
6356;SDS011;3211;53.452;-2.264;2023-05-31T03:27:29;4.77;;;3.30;;
6356;SDS011;3211;53.452;-2.264;2023-05-31T03:30:12;5.43;;;3.83;;
6356;SDS011;3211;53.452;-2.264;2023-05-31T03:32:54;7.80;;;5.10;;
6356;SDS011;3211;53.452;-2.264;2023-05-31T03:35:36;10.33;;;5.73;;
6356;SDS011;3211;53.452;-2.264;2023-05-31T03:38:20;10.10;;;6.80;;
6356;SDS011;3211;53.452;-2.264;2023-05-31T03:41:02;7.70;;;5.87;;
6356;SDS011;3211;53.452;-2.264;2023-05-31T03:43:44;11.40;;;5.53;;
6356;SDS011;3211;53.452;-2.264;2023-05-31T03:46:26;10.97;;;6.37;;
6356;SDS011;3211;53.452;-2.264;2023-05-31T03:49:08;11.80;;;6.80;;
6356;SDS011;3211;53.452;-2.264;2023-05-31T03:51:50;11.63;;;6.97;;
6356;SDS011;3211;53.452;-2.264;2023-05-31T03:54:34;13.93;;;7.40;;
6356;SDS011;3211;53.452;-2.264;2023-05-31T03:57:17;10.03;;;6.90;;
6356;SDS011;3211;53.452;-2.264;2023-05-31T03:59:59;7.10;;;5.33;;
6356;SDS011;3211;53.452;-2.264;2023-05-31T04:02:41;8.43;;;5.63;;
6356;SDS011;3211;53.452;-2.264;2023-05-31T04:05:23;8.90;;;5.30;;
6356;SDS011;3211;53.452;-2.264;2023-05-31T04:08:04;6.83;;;4.37;;
6356;SDS011;3211;53.452;-2.264;2023-05-31T04:10:48;8.47;;;5.40;;
6356;SDS011;3211;53.452;-2.264;2023-05-31T04:13:30;9.53;;;5.80;;
6356;SDS011;3211;53.452;-2.264;2023-05-31T04:16:12;8.93;;;5.60;;
6356;SDS011;3211;53.452;-2.264;2023-05-31T04:18:54;9.17;;;6.10;;
6356;SDS011;3211;53.452;-2.264;2023-05-31T04:21:36;10.27;;;5.90;;
6356;SDS011;3211;53.452;-2.264;2023-05-31T04:24:18;8.40;;;6.20;;
6356;SDS011;3211;53.452;-2.264;2023-05-31T04:27:01;7.20;;;5.37;;
6356;SDS011;3211;53.452;-2.264;2023-05-31T04:29:44;6.97;;;4.50;;
6356;SDS011;3211;53.452;-2.264;2023-05-31T04:32:26;6.70;;;4.73;;
6356;SDS011;3211;53.452;-2.264;2023-05-31T04:35:09;5.93;;;4.10;;
6356;SDS011;3211;53.452;-2.264;2023-05-31T04:37:51;6.37;;;4.43;;
6356;SDS011;3211;53.452;-2.264;2023-05-31T04:40:34;6.83;;;4.10;;
6356;SDS011;3211;53.452;-2.264;2023-05-31T04:43:20;5.97;;;4.20;;
6356;SDS011;3211;53.452;-2.264;2023-05-31T04:46:02;6.87;;;3.17;;
6356;SDS011;3211;53.452;-2.264;2023-05-31T04:48:44;4.90;;;3.40;;
6356;SDS011;3211;53.452;-2.264;2023-05-31T04:51:28;3.70;;;2.90;;
6356;SDS011;3211;53.452;-2.264;2023-05-31T04:54:11;5.67;;;3.53;;
6356;SDS011;3211;53.452;-2.264;2023-05-31T04:56:53;7.20;;;3.80;;
6356;SDS011;3211;53.452;-2.264;2023-05-31T04:59:36;5.83;;;3.50;;
6356;SDS011;3211;53.452;-2.264;2023-05-31T05:02:18;4.97;;;3.53;;
6356;SDS011;3211;53.452;-2.264;2023-05-31T05:05:01;6.73;;;3.90;;
6356;SDS011;3211;53.452;-2.264;2023-05-31T05:07:45;10.50;;;4.50;;
6356;SDS011;3211;53.452;-2.264;2023-05-31T05:10:26;12.43;;;7.60;;
6356;SDS011;3211;53.452;-2.264;2023-05-31T05:13:08;12.63;;;8.10;;
6356;SDS011;3211;53.452;-2.264;2023-05-31T05:15:52;9.20;;;7.20;;
6356;SDS011;3211;53.452;-2.264;2023-05-31T05:18:36;9.80;;;6.70;;
6356;SDS011;3211;53.452;-2.264;2023-05-31T05:21:18;9.20;;;6.77;;
6356;SDS011;3211;53.452;-2.264;2023-05-31T05:24:00;8.93;;;6.10;;
6356;SDS011;3211;53.452;-2.264;2023-05-31T05:26:43;6.67;;;5.20;;
6356;SDS011;3211;53.452;-2.264;2023-05-31T05:29:25;7.43;;;4.63;;
6356;SDS011;3211;53.452;-2.264;2023-05-31T05:32:08;4.90;;;3.70;;
6356;SDS011;3211;53.452;-2.264;2023-05-31T05:34:50;4.50;;;3.30;;
6356;SDS011;3211;53.452;-2.264;2023-05-31T05:37:32;4.80;;;3.67;;
6356;SDS011;3211;53.452;-2.264;2023-05-31T05:40:14;3.60;;;2.93;;
6356;SDS011;3211;53.452;-2.264;2023-05-31T05:42:56;6.80;;;3.30;;
6356;SDS011;3211;53.452;-2.264;2023-05-31T05:45:38;5.20;;;4.17;;
6356;SDS011;3211;53.452;-2.264;2023-05-31T05:48:22;9.80;;;4.17;;
6356;SDS011;3211;53.452;-2.264;2023-05-31T05:51:03;4.27;;;2.80;;
6356;SDS011;3211;53.452;-2.264;2023-05-31T05:53:46;3.27;;;2.57;;
6356;SDS011;3211;53.452;-2.264;2023-05-31T05:56:27;4.50;;;3.00;;
6356;SDS011;3211;53.452;-2.264;2023-05-31T05:59:09;5.73;;;2.70;;
6356;SDS011;3211;53.452;-2.264;2023-05-31T06:01:51;3.70;;;2.60;;
6356;SDS011;3211;53.452;-2.264;2023-05-31T06:04:35;3.53;;;2.77;;
6356;SDS011;3211;53.452;-2.264;2023-05-31T06:07:17;4.00;;;3.17;;
6356;SDS011;3211;53.452;-2.264;2023-05-31T06:09:59;4.10;;;2.67;;
6356;SDS011;3211;53.452;-2.264;2023-05-31T06:12:43;3.10;;;2.50;;
6356;SDS011;3211;53.452;-2.264;2023-05-31T06:15:25;4.27;;;2.30;;
6356;SDS011;3211;53.452;-2.264;2023-05-31T06:18:07;3.20;;;1.80;;
6356;SDS011;3211;53.452;-2.264;2023-05-31T06:20:51;2.23;;;1.93;;
6356;SDS011;3211;53.452;-2.264;2023-05-31T06:23:37;3.10;;;2.13;;
6356;SDS011;3211;53.452;-2.264;2023-05-31T06:26:19;2.17;;;1.80;;
6356;SDS011;3211;53.452;-2.264;2023-05-31T06:29:02;2.23;;;1.90;;
6356;SDS011;3211;53.452;-2.264;2023-05-31T06:31:44;1.77;;;1.40;;
6356;SDS011;3211;53.452;-2.264;2023-05-31T06:34:26;1.70;;;1.60;;
6356;SDS011;3211;53.452;-2.264;2023-05-31T06:37:10;1.70;;;1.10;;
6356;SDS011;3211;53.452;-2.264;2023-05-31T06:39:52;2.13;;;1.30;;
6356;SDS011;3211;53.452;-2.264;2023-05-31T06:42:34;2.50;;;1.30;;
6356;SDS011;3211;53.452;-2.264;2023-05-31T06:45:16;2.03;;;1.20;;
6356;SDS011;3211;53.452;-2.264;2023-05-31T06:47:58;1.20;;;1.10;;
6356;SDS011;3211;53.452;-2.264;2023-05-31T06:50:40;1.40;;;1.20;;
6356;SDS011;3211;53.452;-2.264;2023-05-31T06:53:23;1.27;;;1.17;;
6356;SDS011;3211;53.452;-2.264;2023-05-31T06:56:06;1.50;;;1.33;;
6356;SDS011;3211;53.452;-2.264;2023-05-31T06:58:48;1.67;;;1.30;;
6356;SDS011;3211;53.452;-2.264;2023-05-31T07:01:30;2.00;;;1.30;;
6356;SDS011;3211;53.452;-2.264;2023-05-31T07:04:12;2.17;;;1.50;;
6356;SDS011;3211;53.452;-2.264;2023-05-31T07:06:54;1.30;;;1.20;;
6356;SDS011;3211;53.452;-2.264;2023-05-31T07:09:37;1.30;;;1.20;;
6356;SDS011;3211;53.452;-2.264;2023-05-31T07:12:19;1.57;;;1.30;;
6356;SDS011;3211;53.452;-2.264;2023-05-31T07:15:01;1.73;;;1.60;;
6356;SDS011;3211;53.452;-2.264;2023-05-31T07:17:43;2.03;;;1.80;;
6356;SDS011;3211;53.452;-2.264;2023-05-31T07:20:25;2.50;;;1.70;;
6356;SDS011;3211;53.452;-2.264;2023-05-31T07:23:07;2.20;;;1.70;;
6356;SDS011;3211;53.452;-2.264;2023-05-31T07:25:51;3.23;;;1.70;;
6356;SDS011;3211;53.452;-2.264;2023-05-31T07:28:33;3.30;;;1.80;;
6356;SDS011;3211;53.452;-2.264;2023-05-31T07:31:15;2.87;;;1.77;;
6356;SDS011;3211;53.452;-2.264;2023-05-31T07:33:57;4.20;;;1.70;;
6356;SDS011;3211;53.452;-2.264;2023-05-31T07:36:38;2.07;;;1.87;;
6356;SDS011;3211;53.452;-2.264;2023-05-31T07:39:22;2.27;;;1.90;;
6356;SDS011;3211;53.452;-2.264;2023-05-31T07:42:06;2.20;;;1.60;;
6356;SDS011;3211;53.452;-2.264;2023-05-31T07:44:48;1.63;;;1.53;;
6356;SDS011;3211;53.452;-2.264;2023-05-31T07:47:31;2.47;;;1.60;;
6356;SDS011;3211;53.452;-2.264;2023-05-31T07:50:13;1.80;;;1.70;;
6356;SDS011;3211;53.452;-2.264;2023-05-31T07:52:55;2.30;;;1.60;;
6356;SDS011;3211;53.452;-2.264;2023-05-31T07:55:37;2.37;;;1.50;;
6356;SDS011;3211;53.452;-2.264;2023-05-31T07:58:21;1.93;;;1.33;;
6356;SDS011;3211;53.452;-2.264;2023-05-31T08:01:03;1.43;;;1.33;;
6356;SDS011;3211;53.452;-2.264;2023-05-31T08:03:45;1.93;;;1.40;;
6356;SDS011;3211;53.452;-2.264;2023-05-31T08:06:26;2.07;;;1.20;;
6356;SDS011;3211;53.452;-2.264;2023-05-31T08:09:09;1.63;;;1.53;;
6356;SDS011;3211;53.452;-2.264;2023-05-31T08:11:51;1.40;;;1.30;;
6356;SDS011;3211;53.452;-2.264;2023-05-31T08:14:35;1.80;;;1.40;;
6356;SDS011;3211;53.452;-2.264;2023-05-31T08:17:20;1.50;;;1.40;;
6356;SDS011;3211;53.452;-2.264;2023-05-31T08:20:03;1.80;;;1.40;;
6356;SDS011;3211;53.452;-2.264;2023-05-31T08:22:46;2.10;;;1.43;;
6356;SDS011;3211;53.452;-2.264;2023-05-31T08:25:28;1.30;;;1.20;;
6356;SDS011;3211;53.452;-2.264;2023-05-31T08:28:10;2.27;;;1.20;;
6356;SDS011;3211;53.452;-2.264;2023-05-31T08:30:54;2.20;;;1.23;;
6356;SDS011;3211;53.452;-2.264;2023-05-31T08:33:36;1.67;;;1.40;;
6356;SDS011;3211;53.452;-2.264;2023-05-31T08:36:20;1.60;;;1.33;;
6356;SDS011;3211;53.452;-2.264;2023-05-31T08:39:02;1.90;;;1.50;;
6356;SDS011;3211;53.452;-2.264;2023-05-31T08:41:47;1.40;;;1.30;;
6356;SDS011;3211;53.452;-2.264;2023-05-31T08:44:33;1.93;;;1.50;;
6356;SDS011;3211;53.452;-2.264;2023-05-31T08:47:19;1.97;;;1.50;;
6356;SDS011;3211;53.452;-2.264;2023-05-31T08:50:05;3.83;;;1.70;;
6356;SDS011;3211;53.452;-2.264;2023-05-31T08:52:49;1.80;;;1.70;;
6356;SDS011;3211;53.452;-2.264;2023-05-31T08:55:31;1.73;;;1.63;;
6356;SDS011;3211;53.452;-2.264;2023-05-31T08:58:14;2.37;;;1.77;;
6356;SDS011;3211;53.452;-2.264;2023-05-31T09:00:57;2.10;;;1.50;;
6356;SDS011;3211;53.452;-2.264;2023-05-31T09:03:42;1.83;;;1.50;;
6356;SDS011;3211;53.452;-2.264;2023-05-31T09:06:25;2.33;;;1.60;;
6356;SDS011;3211;53.452;-2.264;2023-05-31T09:09:07;1.80;;;1.50;;
6356;SDS011;3211;53.452;-2.264;2023-05-31T09:11:49;2.77;;;1.97;;
6356;SDS011;3211;53.452;-2.264;2023-05-31T09:14:31;1.80;;;1.70;;
6356;SDS011;3211;53.452;-2.264;2023-05-31T09:17:14;2.03;;;1.60;;
6356;SDS011;3211;53.452;-2.264;2023-05-31T09:19:59;1.83;;;1.70;;
6356;SDS011;3211;53.452;-2.264;2023-05-31T09:22:41;1.90;;;1.70;;
6356;SDS011;3211;53.452;-2.264;2023-05-31T09:25:27;2.00;;;1.80;;
6356;SDS011;3211;53.452;-2.264;2023-05-31T09:28:23;2.23;;;2.03;;
6356;SDS011;3211;53.452;-2.264;2023-05-31T09:31:05;2.43;;;2.00;;
6356;SDS011;3211;53.452;-2.264;2023-05-31T09:33:49;2.17;;;1.83;;
6356;SDS011;3211;53.452;-2.264;2023-05-31T09:36:35;2.17;;;1.73;;
6356;SDS011;3211;53.452;-2.264;2023-05-31T09:39:17;2.37;;;2.17;;
6356;SDS011;3211;53.452;-2.264;2023-05-31T09:42:00;2.30;;;1.73;;
6356;SDS011;3211;53.452;-2.264;2023-05-31T09:44:52;2.07;;;1.80;;
6356;SDS011;3211;53.452;-2.264;2023-05-31T09:47:36;27.80;;;4.80;;
6356;SDS011;3211;53.452;-2.264;2023-05-31T09:50:19;2.87;;;2.20;;
6356;SDS011;3211;53.452;-2.264;2023-05-31T09:53:03;2.53;;;2.13;;
6356;SDS011;3211;53.452;-2.264;2023-05-31T09:55:45;2.23;;;2.03;;
6356;SDS011;3211;53.452;-2.264;2023-05-31T09:58:29;7.00;;;2.60;;
6356;SDS011;3211;53.452;-2.264;2023-05-31T10:01:12;3.90;;;2.57;;
6356;SDS011;3211;53.452;-2.264;2023-05-31T10:03:55;3.70;;;2.57;;
6356;SDS011;3211;53.452;-2.264;2023-05-31T10:06:39;5.83;;;3.33;;
6356;SDS011;3211;53.452;-2.264;2023-05-31T10:09:22;10.53;;;3.27;;
6356;SDS011;3211;53.452;-2.264;2023-05-31T10:12:05;2.37;;;2.17;;
6356;SDS011;3211;53.452;-2.264;2023-05-31T10:14:49;2.80;;;2.60;;
6356;SDS011;3211;53.452;-2.264;2023-05-31T10:17:38;6.10;;;3.00;;
6356;SDS011;3211;53.452;-2.264;2023-05-31T10:20:29;3.70;;;2.63;;
6356;SDS011;3211;53.452;-2.264;2023-05-31T10:23:14;2.40;;;2.20;;
6356;SDS011;3211;53.452;-2.264;2023-05-31T10:26:05;2.50;;;2.10;;
6356;SDS011;3211;53.452;-2.264;2023-05-31T10:28:54;3.17;;;2.20;;
6356;SDS011;3211;53.452;-2.264;2023-05-31T10:31:41;3.13;;;2.83;;
6356;SDS011;3211;53.452;-2.264;2023-05-31T10:34:26;2.77;;;2.40;;
6356;SDS011;3211;53.452;-2.264;2023-05-31T10:37:09;2.53;;;2.33;;
6356;SDS011;3211;53.452;-2.264;2023-05-31T10:39:53;4.80;;;2.60;;
6356;SDS011;3211;53.452;-2.264;2023-05-31T10:42:47;2.00;;;1.90;;
6356;SDS011;3211;53.452;-2.264;2023-05-31T10:45:38;4.93;;;2.10;;
6356;SDS011;3211;53.452;-2.264;2023-05-31T10:48:22;2.73;;;2.43;;
6356;SDS011;3211;53.452;-2.264;2023-05-31T10:51:10;3.83;;;2.50;;
6356;SDS011;3211;53.452;-2.264;2023-05-31T10:53:52;3.07;;;2.47;;
6356;SDS011;3211;53.452;-2.264;2023-05-31T10:56:37;3.53;;;2.70;;
6356;SDS011;3211;53.452;-2.264;2023-05-31T10:59:21;4.33;;;2.43;;
6356;SDS011;3211;53.452;-2.264;2023-05-31T11:02:04;3.70;;;2.63;;
6356;SDS011;3211;53.452;-2.264;2023-05-31T11:04:47;3.13;;;2.53;;
6356;SDS011;3211;53.452;-2.264;2023-05-31T11:07:29;3.53;;;2.13;;
6356;SDS011;3211;53.452;-2.264;2023-05-31T11:10:23;2.60;;;2.20;;
6356;SDS011;3211;53.452;-2.264;2023-05-31T11:13:09;5.40;;;2.60;;
6356;SDS011;3211;53.452;-2.264;2023-05-31T11:15:53;4.37;;;2.73;;
6356;SDS011;3211;53.452;-2.264;2023-05-31T11:18:40;2.70;;;2.50;;
6356;SDS011;3211;53.452;-2.264;2023-05-31T11:24:27;3.70;;;2.33;;
6356;SDS011;3211;53.452;-2.264;2023-05-31T11:27:10;3.80;;;2.27;;
6356;SDS011;3211;53.452;-2.264;2023-05-31T11:29:56;3.73;;;2.93;;
6356;SDS011;3211;53.452;-2.264;2023-05-31T11:32:56;4.33;;;3.13;;
6356;SDS011;3211;53.452;-2.264;2023-05-31T11:35:38;4.07;;;2.70;;
6356;SDS011;3211;53.452;-2.264;2023-05-31T11:38:21;3.80;;;2.67;;
6356;SDS011;3211;53.452;-2.264;2023-05-31T11:41:03;3.10;;;2.80;;
6356;SDS011;3211;53.452;-2.264;2023-05-31T11:43:47;3.97;;;2.60;;
6356;SDS011;3211;53.452;-2.264;2023-05-31T11:46:30;3.43;;;3.10;;
6356;SDS011;3211;53.452;-2.264;2023-05-31T11:49:14;2.87;;;2.57;;
6356;SDS011;3211;53.452;-2.264;2023-05-31T11:51:56;8.20;;;2.93;;
6356;SDS011;3211;53.452;-2.264;2023-05-31T11:54:38;9.53;;;3.07;;
6356;SDS011;3211;53.452;-2.264;2023-05-31T11:57:24;3.07;;;2.77;;
6356;SDS011;3211;53.452;-2.264;2023-05-31T12:00:07;3.27;;;2.97;;
6356;SDS011;3211;53.452;-2.264;2023-05-31T12:02:51;3.73;;;3.20;;
6356;SDS011;3211;53.452;-2.264;2023-05-31T12:05:37;2.90;;;2.60;;
6356;SDS011;3211;53.452;-2.264;2023-05-31T12:08:20;3.07;;;2.47;;
6356;SDS011;3211;53.452;-2.264;2023-05-31T12:11:02;5.23;;;2.90;;
6356;SDS011;3211;53.452;-2.264;2023-05-31T12:13:45;6.20;;;3.30;;
6356;SDS011;3211;53.452;-2.264;2023-05-31T12:16:27;8.70;;;3.20;;
6356;SDS011;3211;53.452;-2.264;2023-05-31T12:19:10;3.90;;;2.60;;
6356;SDS011;3211;53.452;-2.264;2023-05-31T12:21:54;3.60;;;3.00;;
6356;SDS011;3211;53.452;-2.264;2023-05-31T12:24:36;3.30;;;2.87;;
6356;SDS011;3211;53.452;-2.264;2023-05-31T12:27:19;3.77;;;3.40;;
6356;SDS011;3211;53.452;-2.264;2023-05-31T12:30:01;4.80;;;3.47;;
6356;SDS011;3211;53.452;-2.264;2023-05-31T12:32:44;4.37;;;2.70;;
6356;SDS011;3211;53.452;-2.264;2023-05-31T12:35:26;4.73;;;3.10;;
6356;SDS011;3211;53.452;-2.264;2023-05-31T12:38:10;4.00;;;3.43;;
6356;SDS011;3211;53.452;-2.264;2023-05-31T12:40:52;4.50;;;3.40;;
6356;SDS011;3211;53.452;-2.264;2023-05-31T12:43:34;4.57;;;3.13;;
6356;SDS011;3211;53.452;-2.264;2023-05-31T12:46:16;5.50;;;3.10;;
6356;SDS011;3211;53.452;-2.264;2023-05-31T12:49:03;3.90;;;3.30;;
6356;SDS011;3211;53.452;-2.264;2023-05-31T12:51:56;3.40;;;2.90;;
6356;SDS011;3211;53.452;-2.264;2023-05-31T12:54:40;3.13;;;2.83;;
6356;SDS011;3211;53.452;-2.264;2023-05-31T12:57:23;3.33;;;2.90;;
6356;SDS011;3211;53.452;-2.264;2023-05-31T13:00:05;2.60;;;2.40;;
6356;SDS011;3211;53.452;-2.264;2023-05-31T13:02:51;4.30;;;2.90;;
6356;SDS011;3211;53.452;-2.264;2023-05-31T13:05:33;3.43;;;2.97;;
6356;SDS011;3211;53.452;-2.264;2023-05-31T13:08:15;3.00;;;2.70;;
6356;SDS011;3211;53.452;-2.264;2023-05-31T13:10:58;3.90;;;2.67;;
6356;SDS011;3211;53.452;-2.264;2023-05-31T13:13:40;4.03;;;2.77;;
6356;SDS011;3211;53.452;-2.264;2023-05-31T13:16:22;4.90;;;4.00;;
6356;SDS011;3211;53.452;-2.264;2023-05-31T13:19:04;5.03;;;4.47;;
6356;SDS011;3211;53.452;-2.264;2023-05-31T13:21:47;3.70;;;3.40;;
6356;SDS011;3211;53.452;-2.264;2023-05-31T13:24:29;3.60;;;2.83;;
6356;SDS011;3211;53.452;-2.264;2023-05-31T13:27:12;3.43;;;2.87;;
6356;SDS011;3211;53.452;-2.264;2023-05-31T13:29:54;3.00;;;2.67;;
6356;SDS011;3211;53.452;-2.264;2023-05-31T13:32:36;3.27;;;2.80;;
6356;SDS011;3211;53.452;-2.264;2023-05-31T13:35:18;7.67;;;3.20;;
6356;SDS011;3211;53.452;-2.264;2023-05-31T13:38:00;2.70;;;2.43;;
6356;SDS011;3211;53.452;-2.264;2023-05-31T13:40:42;6.57;;;2.70;;
6356;SDS011;3211;53.452;-2.264;2023-05-31T13:43:25;5.17;;;2.63;;
6356;SDS011;3211;53.452;-2.264;2023-05-31T13:46:09;2.77;;;2.53;;
6356;SDS011;3211;53.452;-2.264;2023-05-31T13:48:51;4.00;;;2.63;;
6356;SDS011;3211;53.452;-2.264;2023-05-31T13:51:34;3.37;;;2.90;;
6356;SDS011;3211;53.452;-2.264;2023-05-31T13:54:16;3.50;;;3.00;;
6356;SDS011;3211;53.452;-2.264;2023-05-31T13:56:58;5.90;;;2.90;;
6356;SDS011;3211;53.452;-2.264;2023-05-31T13:59:41;3.10;;;2.80;;
6356;SDS011;3211;53.452;-2.264;2023-05-31T14:02:23;3.63;;;2.73;;
6356;SDS011;3211;53.452;-2.264;2023-05-31T14:05:05;6.60;;;3.10;;
6356;SDS011;3211;53.452;-2.264;2023-05-31T14:07:47;5.07;;;3.17;;
6356;SDS011;3211;53.452;-2.264;2023-05-31T14:10:30;5.50;;;2.93;;
6356;SDS011;3211;53.452;-2.264;2023-05-31T14:13:12;3.83;;;2.90;;
6356;SDS011;3211;53.452;-2.264;2023-05-31T14:15:55;4.00;;;2.83;;
6356;SDS011;3211;53.452;-2.264;2023-05-31T14:18:38;3.63;;;2.40;;
6356;SDS011;3211;53.452;-2.264;2023-05-31T14:21:20;3.90;;;2.80;;
6356;SDS011;3211;53.452;-2.264;2023-05-31T14:24:02;3.20;;;2.90;;
6356;SDS011;3211;53.452;-2.264;2023-05-31T14:26:44;4.40;;;2.83;;
6356;SDS011;3211;53.452;-2.264;2023-05-31T14:29:26;5.37;;;3.03;;
6356;SDS011;3211;53.452;-2.264;2023-05-31T14:32:10;3.30;;;2.70;;
6356;SDS011;3211;53.452;-2.264;2023-05-31T14:34:54;3.40;;;3.10;;
6356;SDS011;3211;53.452;-2.264;2023-05-31T14:37:36;4.83;;;3.20;;
6356;SDS011;3211;53.452;-2.264;2023-05-31T14:40:18;3.37;;;2.70;;
6356;SDS011;3211;53.452;-2.264;2023-05-31T14:43:00;4.23;;;3.13;;
6356;SDS011;3211;53.452;-2.264;2023-05-31T14:45:42;5.00;;;3.10;;
6356;SDS011;3211;53.452;-2.264;2023-05-31T14:48:25;28.23;;;6.10;;
6356;SDS011;3211;53.452;-2.264;2023-05-31T14:51:07;4.63;;;3.23;;
6356;SDS011;3211;53.452;-2.264;2023-05-31T14:53:50;5.63;;;2.80;;
6356;SDS011;3211;53.452;-2.264;2023-05-31T14:56:32;7.17;;;2.87;;
6356;SDS011;3211;53.452;-2.264;2023-05-31T14:59:14;3.50;;;3.00;;
6356;SDS011;3211;53.452;-2.264;2023-05-31T15:01:56;14.13;;;3.80;;
6356;SDS011;3211;53.452;-2.264;2023-05-31T15:04:41;16.93;;;3.87;;
6356;SDS011;3211;53.452;-2.264;2023-05-31T15:07:23;5.83;;;3.20;;
6356;SDS011;3211;53.452;-2.264;2023-05-31T15:10:05;7.33;;;3.00;;
6356;SDS011;3211;53.452;-2.264;2023-05-31T15:12:48;3.43;;;2.90;;
6356;SDS011;3211;53.452;-2.264;2023-05-31T15:15:30;5.47;;;3.00;;
6356;SDS011;3211;53.452;-2.264;2023-05-31T15:18:12;4.43;;;2.60;;
6356;SDS011;3211;53.452;-2.264;2023-05-31T15:20:55;3.50;;;2.87;;
6356;SDS011;3211;53.452;-2.264;2023-05-31T15:23:37;7.97;;;3.57;;
6356;SDS011;3211;53.452;-2.264;2023-05-31T15:26:19;5.13;;;2.80;;
6356;SDS011;3211;53.452;-2.264;2023-05-31T15:29:02;4.30;;;2.87;;
6356;SDS011;3211;53.452;-2.264;2023-05-31T15:31:44;4.23;;;3.20;;
6356;SDS011;3211;53.452;-2.264;2023-05-31T15:34:26;5.10;;;3.47;;
6356;SDS011;3211;53.452;-2.264;2023-05-31T15:37:09;4.77;;;3.13;;
6356;SDS011;3211;53.452;-2.264;2023-05-31T15:39:51;3.27;;;2.30;;
6356;SDS011;3211;53.452;-2.264;2023-05-31T15:42:33;4.97;;;2.67;;
6356;SDS011;3211;53.452;-2.264;2023-05-31T15:45:15;5.27;;;2.77;;
6356;SDS011;3211;53.452;-2.264;2023-05-31T15:47:57;4.00;;;2.80;;
6356;SDS011;3211;53.452;-2.264;2023-05-31T15:50:39;5.10;;;2.40;;
6356;SDS011;3211;53.452;-2.264;2023-05-31T15:53:22;7.43;;;2.40;;
6356;SDS011;3211;53.452;-2.264;2023-05-31T15:56:04;3.60;;;2.67;;
6356;SDS011;3211;53.452;-2.264;2023-05-31T15:58:46;5.40;;;2.60;;
6356;SDS011;3211;53.452;-2.264;2023-05-31T16:01:28;5.63;;;2.90;;
6356;SDS011;3211;53.452;-2.264;2023-05-31T16:04:10;5.50;;;2.30;;
6356;SDS011;3211;53.452;-2.264;2023-05-31T16:06:52;3.43;;;2.70;;
6356;SDS011;3211;53.452;-2.264;2023-05-31T16:09:35;4.47;;;2.70;;
6356;SDS011;3211;53.452;-2.264;2023-05-31T16:12:17;3.33;;;2.10;;
6356;SDS011;3211;53.452;-2.264;2023-05-31T16:14:59;4.60;;;2.43;;
6356;SDS011;3211;53.452;-2.264;2023-05-31T16:17:41;4.40;;;3.30;;
6356;SDS011;3211;53.452;-2.264;2023-05-31T16:20:23;2.70;;;2.50;;
6356;SDS011;3211;53.452;-2.264;2023-05-31T16:23:05;2.43;;;2.20;;
6356;SDS011;3211;53.452;-2.264;2023-05-31T16:25:48;3.30;;;2.87;;
6356;SDS011;3211;53.452;-2.264;2023-05-31T16:28:33;3.13;;;2.30;;
6356;SDS011;3211;53.452;-2.264;2023-05-31T16:31:15;4.33;;;2.83;;
6356;SDS011;3211;53.452;-2.264;2023-05-31T16:33:57;6.10;;;2.80;;
6356;SDS011;3211;53.452;-2.264;2023-05-31T16:36:39;3.00;;;2.47;;
6356;SDS011;3211;53.452;-2.264;2023-05-31T16:39:21;5.63;;;3.23;;